createdAt,value
2022-10-04T00:00:49.157Z,97474.81
2022-10-04T00:03:30.866Z,97465.09
2022-10-04T00:06:00.851Z,97469.13
2022-10-04T00:08:44.483Z,97477.69
2022-10-04T00:11:19.151Z,97467.38
2022-10-04T00:13:54.013Z,97473.13
2022-10-04T00:16:40.752Z,97477.56
2022-10-04T00:19:15.984Z,97478.19
2022-10-04T00:21:57.692Z,97473.84
2022-10-04T00:24:32.369Z,97477.97
2022-10-04T00:27:19.008Z,97477.97
2022-10-04T00:30:09.399Z,97479.50
2022-10-04T00:32:39.409Z,97474.41
2022-10-04T00:35:24.524Z,97473.38
2022-10-04T00:38:14.858Z,97466.41
2022-10-04T00:41:08.728Z,97468.88
2022-10-04T00:43:42.608Z,97467.16
2022-10-04T00:46:18.551Z,97470.41
2022-10-04T00:49:06.730Z,97472.09
2022-10-04T00:51:41.632Z,97477.88
2022-10-04T00:54:32.461Z,97468.47
2022-10-04T00:57:07.465Z,97465.84
2022-10-04T00:59:44.446Z,97467.28
2022-10-04T01:02:16.472Z,97462.88
2022-10-04T01:04:52.536Z,97457.09
2022-10-04T01:07:26.969Z,97459.53
2022-10-04T01:10:01.356Z,97456.75
2022-10-04T01:12:36.519Z,97459.13
2022-10-04T01:15:14.220Z,97459.03
2022-10-04T01:17:40.608Z,97450.63
2022-10-04T01:20:34.497Z,97447.38
2022-10-04T01:23:03.573Z,97448.88
2022-10-04T01:25:50.259Z,97450.56
2022-10-04T01:28:16.912Z,97455.69
2022-10-04T01:30:43.966Z,97457.19
2022-10-04T01:33:12.434Z,97460.56
2022-10-04T01:35:39.072Z,97454.69
2022-10-04T01:40:57.203Z,97447.66
2022-10-04T01:43:31.786Z,97450.16
2022-10-04T01:46:09.642Z,97446.97
2022-10-04T01:48:37.661Z,97445.31
2022-10-04T01:51:19.155Z,97437.69
2022-10-04T01:53:54.427Z,97444.53
2022-10-04T01:56:28.535Z,97437.41
2022-10-04T01:59:01.974Z,97430.44
2022-10-04T02:01:50.409Z,97434.56
2022-10-04T02:04:27.188Z,97435.28
2022-10-04T02:06:55.510Z,97436.22
2022-10-04T02:09:43.646Z,97443.69
2022-10-04T02:12:16.191Z,97441.22
2022-10-04T02:14:52.623Z,97437.66
2022-10-04T02:17:23.211Z,97433.44
2022-10-04T02:19:50.469Z,97434.34
2022-10-04T02:22:18.278Z,97427.66
2022-10-04T02:24:48.282Z,97428.41
2022-10-04T02:27:15.743Z,97424.03
2022-10-04T02:29:42.691Z,97413.59
2022-10-04T02:32:29.224Z,97409.38
2022-10-04T02:34:57.043Z,97416.81
2022-10-04T02:37:26.787Z,97416.81
2022-10-04T02:40:07.627Z,97418.50
2022-10-04T02:42:34.553Z,97425.06
2022-10-04T02:45:13.620Z,97435.13
2022-10-04T02:48:06.090Z,97431.88
2022-10-04T02:50:44.211Z,97435.53
2022-10-04T02:53:50.134Z,97433.28
2022-10-04T02:56:18.005Z,97428.06
2022-10-04T02:58:44.662Z,97429.66
2022-10-04T03:01:26.501Z,97424.34
2022-10-04T03:03:55.971Z,97425.38
2022-10-04T03:06:26.125Z,97435.34
2022-10-04T03:09:02.820Z,97423.75
2022-10-04T03:11:33.967Z,97424.97
2022-10-04T03:14:05.215Z,97424.59
2022-10-04T03:16:39.352Z,97423.47
2022-10-04T03:19:06.580Z,97414.00
2022-10-04T03:21:33.944Z,97401.66
2022-10-04T03:24:03.379Z,97407.97
2022-10-04T03:26:37.520Z,97400.22
2022-10-04T03:29:10.153Z,97401.78
2022-10-04T03:32:04.250Z,97406.88
2022-10-04T03:34:36.546Z,97411.94
2022-10-04T03:37:06.060Z,97412.75
2022-10-04T03:39:43.560Z,97408.66
2022-10-04T03:42:20.299Z,97412.00
2022-10-04T03:44:49.250Z,97415.53
2022-10-04T03:47:33.774Z,97418.19
2022-10-04T03:50:04.992Z,97417.31
2022-10-04T03:52:32.731Z,97420.59
2022-10-04T03:55:03.096Z,97418.13
2022-10-04T03:57:30.819Z,97412.88
2022-10-04T03:59:58.924Z,97414.41
2022-10-04T04:02:46.448Z,97415.09
2022-10-04T04:05:29.461Z,97427.03
2022-10-04T04:08:04.404Z,97430.63
2022-10-04T04:10:35.766Z,97426.53
2022-10-04T04:13:10.930Z,97422.31
2022-10-04T04:15:38.018Z,97414.72
2022-10-04T04:18:10.903Z,97413.84
2022-10-04T04:20:38.490Z,97418.22
2022-10-04T04:23:13.940Z,97417.66
2022-10-04T04:25:43.954Z,97418.25
2022-10-04T04:28:33.385Z,97412.94
2022-10-04T04:31:04.484Z,97407.19
2022-10-04T04:33:47.188Z,97394.44
2022-10-04T04:36:16.948Z,97404.53
2022-10-04T04:39:16.136Z,97403.78
2022-10-04T04:41:45.784Z,97399.63
2022-10-04T04:44:19.397Z,97408.00
2022-10-04T04:46:47.570Z,97401.97
2022-10-04T04:49:17.911Z,97407.03
2022-10-04T04:51:51.298Z,97408.31
2022-10-04T04:54:22.028Z,97403.91
2022-10-04T04:56:52.880Z,97402.22
2022-10-04T04:59:22.378Z,97408.31
2022-10-04T05:01:50.205Z,97405.97
2022-10-04T05:04:20.838Z,97410.38
2022-10-04T05:07:16.207Z,97414.97
2022-10-04T05:09:42.528Z,97421.97
2022-10-04T05:12:15.982Z,97417.19
2022-10-04T05:14:49.339Z,97413.16
2022-10-04T05:17:24.068Z,97410.19
2022-10-04T05:19:55.859Z,97407.88
2022-10-04T05:22:24.896Z,97403.03
2022-10-04T05:24:59.943Z,97388.88
2022-10-04T05:27:42.641Z,97386.81
2022-10-04T05:30:09.594Z,97391.47
2022-10-04T05:32:55.614Z,97408.25
2022-10-04T05:35:23.438Z,97397.28
2022-10-04T05:38:02.491Z,97404.13
2022-10-04T05:40:50.713Z,97410.06
2022-10-04T05:43:41.406Z,97407.59
2022-10-04T05:46:26.879Z,97423.28
2022-10-04T05:49:01.870Z,97417.69
2022-10-04T05:51:30.719Z,97410.31
2022-10-04T05:54:00.977Z,97418.25
2022-10-04T05:56:30.138Z,97412.91
2022-10-04T05:59:09.572Z,97411.78
2022-10-04T06:02:03.344Z,97418.84
2022-10-04T06:04:45.364Z,97424.38
2022-10-04T06:07:38.088Z,97438.25
2022-10-04T06:10:26.013Z,97418.91
2022-10-04T06:13:09.598Z,97406.88
2022-10-04T06:15:51.433Z,97409.31
2022-10-04T06:18:23.587Z,97406.66
2022-10-04T06:21:05.939Z,97410.47
2022-10-04T06:23:41.838Z,97414.69
2022-10-04T06:26:13.776Z,97418.31
2022-10-04T06:28:48.074Z,97405.03
2022-10-04T06:31:24.514Z,97406.84
2022-10-04T06:34:24.621Z,97417.03
2022-10-04T06:37:17.291Z,97429.06
2022-10-04T06:40:20.678Z,97425.94
2022-10-04T06:42:48.008Z,97432.09
2022-10-04T06:45:42.501Z,97437.41
2022-10-04T06:48:27.371Z,97455.00
2022-10-04T06:51:09.188Z,97450.91
2022-10-04T06:54:06.088Z,97457.47
2022-10-04T06:56:47.301Z,97449.41
2022-10-04T06:59:36.160Z,97444.56
2022-10-04T07:02:14.102Z,97449.56
2022-10-04T07:05:11.514Z,97443.16
2022-10-04T07:07:41.949Z,97450.13
2022-10-04T07:10:08.262Z,97453.22
2022-10-04T07:12:39.132Z,97468.56
2022-10-04T07:15:18.662Z,97462.09
2022-10-04T07:17:48.013Z,97453.53
2022-10-04T07:20:22.562Z,97454.19
2022-10-04T07:22:57.543Z,97449.41
2022-10-04T07:25:33.985Z,97435.44
2022-10-04T07:28:33.357Z,97425.53
2022-10-04T07:31:14.730Z,97423.88
2022-10-04T07:33:52.195Z,97433.31
2022-10-04T07:36:45.282Z,97442.81
2022-10-04T07:39:20.937Z,97445.47
2022-10-04T07:41:50.272Z,97442.81
2022-10-04T07:44:45.436Z,97436.41
2022-10-04T07:47:20.706Z,97429.25
2022-10-04T07:49:50.872Z,97431.13
2022-10-04T07:52:29.246Z,97428.53
2022-10-04T07:55:02.104Z,97430.41
2022-10-04T07:57:41.637Z,97425.72
2022-10-04T08:00:13.552Z,97440.09
2022-10-04T08:03:09.571Z,97451.06
2022-10-04T08:05:45.576Z,97450.75
2022-10-04T08:08:34.505Z,97451.66
2022-10-04T08:11:23.655Z,97451.75
2022-10-04T08:14:17.320Z,97445.81
2022-10-04T08:17:15.775Z,97453.25
2022-10-04T08:20:02.773Z,97448.97
2022-10-04T08:23:07.047Z,97455.72
2022-10-04T08:26:15.032Z,97461.53
2022-10-04T08:29:12.406Z,97466.06
2022-10-04T08:31:46.296Z,97477.22
2022-10-04T08:34:28.977Z,97472.94
2022-10-04T08:37:30.664Z,97474.28
2022-10-04T08:40:33.224Z,97468.13
2022-10-04T08:43:33.987Z,97466.59
2022-10-04T08:46:26.021Z,97462.94
2022-10-04T08:49:13.584Z,97457.94
2022-10-04T08:51:58.444Z,97455.00
2022-10-04T08:54:57.023Z,97458.16
2022-10-04T08:57:43.867Z,97457.88
2022-10-04T09:00:20.848Z,97455.13
2022-10-04T09:03:06.089Z,97453.78
2022-10-04T09:05:50.378Z,97464.03
2022-10-04T09:08:47.854Z,97470.34
2022-10-04T09:11:34.527Z,97465.81
2022-10-04T09:14:31.671Z,97463.69
2022-10-04T09:17:22.314Z,97459.31
2022-10-04T09:20:36.759Z,97462.97
2022-10-04T09:23:33.585Z,97454.72
2022-10-04T09:26:37.360Z,97470.28
2022-10-04T09:29:33.488Z,97474.97
2022-10-04T09:32:05.912Z,97464.31
2022-10-04T09:35:03.850Z,97463.97
2022-10-04T09:38:06.489Z,97462.53
2022-10-04T09:41:08.432Z,97454.66
2022-10-04T09:43:46.651Z,97451.66
2022-10-04T09:46:37.525Z,97456.78
2022-10-04T09:49:36.703Z,97456.97
2022-10-04T09:52:18.167Z,97462.97
2022-10-04T09:55:13.406Z,97464.94
2022-10-04T09:58:07.600Z,97472.75
2022-10-04T10:00:50.358Z,97465.19
2022-10-04T10:03:37.954Z,97459.03
2022-10-04T10:06:34.651Z,97457.56
2022-10-04T10:10:07.307Z,97459.41
2022-10-04T10:13:31.996Z,97456.00
2022-10-04T10:16:19.959Z,97460.28
2022-10-04T10:19:28.312Z,97454.25
2022-10-04T10:22:32.247Z,97452.28
2022-10-04T10:25:07.735Z,97446.31
2022-10-04T10:27:57.233Z,97451.66
2022-10-04T10:30:35.672Z,97439.50
2022-10-04T10:33:38.177Z,97438.63
2022-10-04T10:36:21.327Z,97448.13
2022-10-04T10:39:22.440Z,97439.59
2022-10-04T10:42:14.535Z,97448.97
2022-10-04T10:44:41.497Z,97443.28
2022-10-04T10:47:50.815Z,97447.84
2022-10-04T10:50:26.141Z,97451.53
2022-10-04T10:53:29.920Z,97446.94
2022-10-04T10:56:30.501Z,97449.78
2022-10-04T10:59:25.256Z,97445.00
2022-10-04T11:02:18.117Z,97447.09
2022-10-04T11:04:54.153Z,97446.31
2022-10-04T11:07:50.750Z,97438.97
2022-10-04T11:10:41.987Z,97435.88
2022-10-04T11:13:28.040Z,97444.28
2022-10-04T11:16:25.069Z,97438.94
2022-10-04T11:19:34.719Z,97428.97
2022-10-04T11:22:18.981Z,97423.56
2022-10-04T11:25:15.986Z,97416.28
2022-10-04T11:28:02.337Z,97412.69
2022-10-04T11:31:10.009Z,97412.28
2022-10-04T11:33:58.177Z,97410.22
2022-10-04T11:36:47.586Z,97407.69
2022-10-04T11:39:30.283Z,97404.47
2022-10-04T11:42:23.128Z,97405.88
2022-10-04T11:45:23.056Z,97402.88
2022-10-04T11:48:43.258Z,97396.78
2022-10-04T11:51:22.525Z,97406.25
2022-10-04T11:54:10.229Z,97411.25
2022-10-04T11:57:25.995Z,97404.84
2022-10-04T12:00:20.871Z,97406.53
2022-10-04T12:03:44.273Z,97394.44
2022-10-04T12:06:33.704Z,97397.25
2022-10-04T12:09:27.658Z,97381.63
2022-10-04T12:12:30.887Z,97377.63
2022-10-04T12:15:04.116Z,97376.97
2022-10-04T12:18:05.167Z,97366.28
2022-10-04T12:20:51.175Z,97365.03
2022-10-04T12:23:20.206Z,97364.50
2022-10-04T12:26:07.172Z,97361.91
2022-10-04T12:29:10.236Z,97358.00
2022-10-04T12:31:53.249Z,97360.38
2022-10-04T12:34:41.377Z,97346.28
2022-10-04T12:37:16.924Z,97344.19
2022-10-04T12:40:06.873Z,97343.50
2022-10-04T12:42:47.159Z,97341.28
2022-10-04T12:45:42.444Z,97340.63
2022-10-04T12:48:22.912Z,97339.25
2022-10-04T12:51:01.381Z,97331.34
2022-10-04T12:53:42.855Z,97329.63
2022-10-04T12:56:32.012Z,97320.31
2022-10-04T12:59:35.293Z,97334.41
2022-10-04T13:02:12.688Z,97340.59
2022-10-04T13:04:49.350Z,97329.16
2022-10-04T13:07:21.651Z,97325.69
2022-10-04T13:10:19.244Z,97331.06
2022-10-04T13:13:28.243Z,97325.34
2022-10-04T13:19:16.557Z,97305.81
2022-10-04T13:21:52.831Z,97317.25
2022-10-04T13:24:31.026Z,97322.84
2022-10-04T13:27:13.974Z,97318.38
2022-10-04T13:30:06.647Z,97325.31
2022-10-04T13:32:48.412Z,97316.03
2022-10-04T13:35:21.937Z,97316.22
2022-10-04T13:38:29.235Z,97309.84
2022-10-04T13:41:08.504Z,97304.50
2022-10-04T13:43:49.443Z,97315.19
2022-10-04T13:46:27.950Z,97308.91
2022-10-04T13:48:57.352Z,97304.03
2022-10-04T13:52:15.439Z,97312.53
2022-10-04T13:55:29.616Z,97318.31
2022-10-04T13:58:10.946Z,97312.22
2022-10-04T14:01:05.231Z,97313.56
2022-10-04T14:03:49.058Z,97324.34
2022-10-04T14:06:37.137Z,97325.19
2022-10-04T14:09:15.504Z,97337.22
2022-10-04T14:12:33.798Z,97338.28
2022-10-04T14:15:27.740Z,97336.91
2022-10-04T14:18:15.955Z,97336.19
2022-10-04T14:21:19.166Z,97326.97
2022-10-04T14:24:36.789Z,97331.34
2022-10-04T14:27:39.783Z,97333.72
2022-10-04T14:30:12.486Z,97341.81
2022-10-04T14:32:51.904Z,97348.22
2022-10-04T14:35:27.577Z,97357.22
2022-10-04T14:38:13.000Z,97354.19
2022-10-04T14:41:12.158Z,97355.50
2022-10-04T14:44:12.826Z,97357.66
2022-10-04T14:46:57.096Z,97354.81
2022-10-04T14:50:00.710Z,97335.25
2022-10-04T14:52:52.567Z,97351.75
2022-10-04T14:55:36.150Z,97341.25
2022-10-04T14:58:11.959Z,97339.94
2022-10-04T15:01:03.653Z,97343.47
2022-10-04T15:03:36.113Z,97339.66
2022-10-04T15:06:12.019Z,97331.75
2022-10-04T15:09:12.344Z,97333.69
2022-10-04T15:12:25.640Z,97340.06
2022-10-04T15:15:02.655Z,97339.63
2022-10-04T15:17:37.691Z,97337.88
2022-10-04T15:20:24.788Z,97337.28
2022-10-04T15:22:54.149Z,97340.63
2022-10-04T15:25:39.653Z,97340.63
2022-10-04T15:28:12.138Z,97339.97
2022-10-04T15:30:56.692Z,97327.31
2022-10-04T15:33:48.779Z,97325.47
2022-10-04T15:36:37.188Z,97317.78
2022-10-04T15:39:21.500Z,97320.34
2022-10-04T15:42:07.068Z,97314.44
2022-10-04T15:45:04.663Z,97313.66
2022-10-04T15:47:49.288Z,97309.41
2022-10-04T15:50:29.255Z,97313.88
2022-10-04T15:53:20.194Z,97311.28
2022-10-04T15:56:12.128Z,97311.31
2022-10-04T15:59:18.997Z,97307.03
2022-10-04T16:02:03.102Z,97303.59
2022-10-04T16:04:40.239Z,97304.56
2022-10-04T16:07:06.537Z,97311.47
2022-10-04T16:09:40.380Z,97309.84
2022-10-04T16:12:20.004Z,97315.00
2022-10-04T16:14:58.850Z,97314.16
2022-10-04T16:17:43.990Z,97316.78
2022-10-04T16:20:40.530Z,97317.66
2022-10-04T16:23:44.067Z,97314.19
2022-10-04T16:26:19.408Z,97312.44
2022-10-04T16:29:00.680Z,97306.41
2022-10-04T16:31:46.227Z,97309.84
2022-10-04T16:34:45.257Z,97304.69
2022-10-04T16:37:23.784Z,97304.66
2022-10-04T16:40:00.739Z,97305.50
2022-10-04T16:42:45.389Z,97307.22
2022-10-04T16:45:14.667Z,97315.78
2022-10-04T16:47:56.468Z,97312.31
2022-10-04T16:51:01.637Z,97314.88
2022-10-04T16:53:46.610Z,97314.84
2022-10-04T16:56:24.088Z,97315.69
2022-10-04T16:58:56.499Z,97323.31
2022-10-04T17:01:22.973Z,97319.88
2022-10-04T17:04:04.474Z,97328.38
2022-10-04T17:06:49.668Z,97325.72
2022-10-04T17:09:35.395Z,97329.09
2022-10-04T17:12:17.567Z,97341.06
2022-10-04T17:14:55.226Z,97338.47
2022-10-04T17:17:46.638Z,97343.56
2022-10-04T17:20:13.070Z,97343.53
2022-10-04T17:23:03.942Z,97346.91
2022-10-04T17:25:48.455Z,97344.34
2022-10-04T17:28:31.579Z,97345.97
2022-10-04T17:31:09.028Z,97339.94
2022-10-04T17:34:07.749Z,97339.00
2022-10-04T17:36:54.927Z,97337.31
2022-10-04T17:39:34.526Z,97342.47
2022-10-04T17:42:13.250Z,97340.78
2022-10-04T17:44:45.461Z,97346.63
2022-10-04T17:47:54.971Z,97347.38
2022-10-04T17:50:48.757Z,97347.34
2022-10-04T17:53:39.019Z,97348.06
2022-10-04T17:56:07.502Z,97353.09
2022-10-04T17:58:52.268Z,97355.59
2022-10-04T18:01:55.932Z,97354.72
2022-10-04T18:04:30.483Z,97349.66
2022-10-04T18:07:21.354Z,97347.91
2022-10-04T18:09:55.898Z,97347.03
2022-10-04T18:12:28.570Z,97347.81
2022-10-04T18:15:06.000Z,97346.88
2022-10-04T18:17:42.681Z,97342.50
2022-10-04T18:20:08.970Z,97344.22
2022-10-04T18:22:47.082Z,97354.41
2022-10-04T18:25:14.046Z,97353.41
2022-10-04T18:28:06.874Z,97347.34
2022-10-04T18:30:48.950Z,97343.81
2022-10-04T18:33:19.598Z,97346.34
2022-10-04T18:36:05.162Z,97345.50
2022-10-04T18:38:34.424Z,97347.22
2022-10-04T18:41:13.020Z,97349.75
2022-10-04T18:43:51.515Z,97354.94
2022-10-04T18:46:24.888Z,97353.22
2022-10-04T18:48:56.318Z,97354.91
2022-10-04T18:51:26.097Z,97347.25
2022-10-04T18:54:06.343Z,97348.91
2022-10-04T18:56:52.773Z,97358.81
2022-10-04T19:00:01.034Z,97356.72
2022-10-04T19:03:04.684Z,97358.19
2022-10-04T19:05:57.159Z,97353.84
2022-10-04T19:08:47.926Z,97355.56
2022-10-04T19:11:26.634Z,97361.56
2022-10-04T19:14:17.875Z,97365.78
2022-10-04T19:17:05.363Z,97363.22
2022-10-04T19:19:39.919Z,97364.09
2022-10-04T19:22:35.000Z,97365.75
2022-10-04T19:25:17.096Z,97368.22
2022-10-04T19:27:57.199Z,97370.84
2022-10-04T19:30:41.643Z,97387.03
2022-10-04T19:33:29.570Z,97379.25
2022-10-04T19:36:24.316Z,97376.47
2022-10-04T19:39:12.534Z,97372.16
2022-10-04T19:41:56.594Z,97364.25
2022-10-04T19:44:35.479Z,97366.69
2022-10-04T19:47:16.190Z,97372.38
2022-10-04T19:50:01.992Z,97373.03
2022-10-04T19:52:35.634Z,97380.69
2022-10-04T19:55:17.536Z,97385.25
2022-10-04T19:58:15.660Z,97371.75
2022-10-04T20:00:42.050Z,97360.88
2022-10-04T20:03:15.071Z,97370.34
2022-10-04T20:05:47.254Z,97366.81
2022-10-04T20:08:17.155Z,97366.00
2022-10-04T20:10:44.141Z,97366.78
2022-10-04T20:13:10.726Z,97368.63
2022-10-04T20:15:37.711Z,97386.53
2022-10-04T20:18:31.741Z,97388.94
2022-10-04T20:20:59.953Z,97391.34
2022-10-04T20:23:38.716Z,97389.59
2022-10-04T20:26:08.814Z,97393.06
2022-10-04T20:28:41.703Z,97393.19
2022-10-04T20:31:10.461Z,97397.47
2022-10-04T20:33:38.815Z,97394.00
2022-10-04T20:36:31.394Z,97402.38
2022-10-04T20:38:59.611Z,97410.13
2022-10-04T20:41:28.806Z,97400.75
2022-10-04T20:44:03.901Z,97400.69
2022-10-04T20:46:39.793Z,97403.19
2022-10-04T20:49:16.027Z,97411.59
2022-10-04T20:51:49.731Z,97416.53
2022-10-04T20:54:20.880Z,97425.09
2022-10-04T20:56:49.926Z,97416.38
2022-10-04T20:59:18.223Z,97423.09
2022-10-04T21:02:01.623Z,97427.34
2022-10-04T21:04:32.399Z,97421.19
2022-10-04T21:07:05.709Z,97430.34
2022-10-04T21:09:34.092Z,97432.78
2022-10-04T21:12:01.711Z,97432.59
2022-10-04T21:14:27.971Z,97431.78
2022-10-04T21:17:01.414Z,97430.91
2022-10-04T21:19:44.419Z,97435.97
2022-10-04T21:22:31.977Z,97435.88
2022-10-04T21:25:25.802Z,97434.31
2022-10-04T21:27:53.190Z,97432.53
2022-10-04T21:30:19.729Z,97427.28
2022-10-04T21:32:46.367Z,97436.75
2022-10-04T21:35:13.358Z,97429.81
2022-10-04T21:37:40.043Z,97435.06
2022-10-04T21:40:07.428Z,97427.25
2022-10-04T21:42:33.920Z,97428.94
2022-10-04T21:45:00.391Z,97432.47
2022-10-04T21:47:26.742Z,97434.00
2022-10-04T21:49:53.857Z,97435.59
2022-10-04T21:52:20.725Z,97433.78
2022-10-04T21:54:47.266Z,97430.41
2022-10-04T21:57:13.633Z,97432.91
2022-10-04T21:59:40.015Z,97439.75
2022-10-04T22:02:07.699Z,97443.16
2022-10-04T22:04:34.646Z,97441.44
2022-10-04T22:07:01.134Z,97439.69
2022-10-04T22:09:27.540Z,97440.53
2022-10-04T22:11:53.927Z,97440.38
2022-10-04T22:14:20.234Z,97448.00
2022-10-04T22:16:46.886Z,97447.03
2022-10-04T22:19:13.428Z,97451.25
2022-10-04T22:21:39.798Z,97447.03
2022-10-04T22:24:16.275Z,97451.22
2022-10-04T22:26:42.734Z,97447.03
2022-10-04T22:29:13.481Z,97449.53
2022-10-04T22:31:43.917Z,97452.03
2022-10-04T22:34:19.325Z,97440.91
2022-10-04T22:36:47.703Z,97440.97
2022-10-04T22:39:17.477Z,97433.50
2022-10-04T22:41:59.634Z,97435.38
2022-10-04T22:44:36.343Z,97434.50
2022-10-04T22:47:04.623Z,97437.88
2022-10-04T22:49:34.337Z,97436.91
2022-10-04T22:52:03.955Z,97440.09
2022-10-04T22:54:35.548Z,97438.25
2022-10-04T22:57:02.224Z,97440.81
2022-10-04T22:59:37.459Z,97440.91
2022-10-04T23:02:10.683Z,97443.47
2022-10-04T23:04:37.177Z,97437.47
2022-10-04T23:07:03.634Z,97435.59
2022-10-04T23:09:29.972Z,97441.63
2022-10-04T23:11:56.306Z,97445.06
2022-10-04T23:14:22.617Z,97439.13
2022-10-04T23:16:49.514Z,97433.78
2022-10-04T23:19:19.960Z,97445.72
2022-10-04T23:21:48.607Z,97442.34
2022-10-04T23:24:20.607Z,97424.22
2022-10-04T23:26:55.131Z,97434.69
2022-10-04T23:29:24.726Z,97431.94
2022-10-04T23:31:52.366Z,97429.31
2022-10-04T23:34:25.713Z,97426.63
2022-10-04T23:36:52.359Z,97427.34
2022-10-04T23:39:24.949Z,97423.09
2022-10-04T23:41:53.632Z,97418.00
2022-10-04T23:44:22.124Z,97414.53
2022-10-04T23:46:48.783Z,97408.50
2022-10-04T23:49:20.204Z,97407.38
2022-10-04T23:51:48.021Z,97404.75
2022-10-04T23:54:20.010Z,97398.63
2022-10-04T23:56:47.212Z,97390.06
2022-10-04T23:59:19.328Z,97396.13
